sensor_id;sensor_type;location;lat;lon;timestamp;temperature;humidity
11474;DHT22;5793;52.238;13.438;2023-02-16T00:01:48;-0.60;99.90
11474;DHT22;5793;52.238;13.438;2023-02-16T00:04:18;-0.60;99.90
11474;DHT22;5793;52.238;13.438;2023-02-16T00:06:47;-0.60;99.90
11474;DHT22;5793;52.238;13.438;2023-02-16T00:09:15;-0.50;99.90
11474;DHT22;5793;52.238;13.438;2023-02-16T00:11:46;-0.20;99.90
11474;DHT22;5793;52.238;13.438;2023-02-16T00:14:33;-0.20;99.90
11474;DHT22;5793;52.238;13.438;2023-02-16T00:17:01;-0.10;99.90
11474;DHT22;5793;52.238;13.438;2023-02-16T00:19:32;-0.10;99.90
11474;DHT22;5793;52.238;13.438;2023-02-16T00:22:01;-0.10;99.90
11474;DHT22;5793;52.238;13.438;2023-02-16T00:24:30;-0.20;99.90
11474;DHT22;5793;52.238;13.438;2023-02-16T00:26:59;-0.20;99.90
11474;DHT22;5793;52.238;13.438;2023-02-16T00:29:29;-0.20;99.90
11474;DHT22;5793;52.238;13.438;2023-02-16T00:31:59;-0.20;99.90
11474;DHT22;5793;52.238;13.438;2023-02-16T00:34:30;-0.30;99.90
11474;DHT22;5793;52.238;13.438;2023-02-16T00:37:00;-0.40;99.90
11474;DHT22;5793;52.238;13.438;2023-02-16T00:39:29;-0.40;99.90
11474;DHT22;5793;52.238;13.438;2023-02-16T00:42:00;-0.40;99.90
11474;DHT22;5793;52.238;13.438;2023-02-16T00:44:32;-0.40;99.90
11474;DHT22;5793;52.238;13.438;2023-02-16T00:47:03;-0.40;99.90
11474;DHT22;5793;52.238;13.438;2023-02-16T00:49:35;-0.30;99.90
11474;DHT22;5793;52.238;13.438;2023-02-16T00:52:11;-0.20;99.90
11474;DHT22;5793;52.238;13.438;2023-02-16T00:54:49;-0.10;99.90
11474;DHT22;5793;52.238;13.438;2023-02-16T00:57:19;0.00;99.90
11474;DHT22;5793;52.238;13.438;2023-02-16T00:59:48;0.00;99.90
11474;DHT22;5793;52.238;13.438;2023-02-16T01:02:18;0.10;99.90
11474;DHT22;5793;52.238;13.438;2023-02-16T01:04:46;0.00;99.90
11474;DHT22;5793;52.238;13.438;2023-02-16T01:07:15;0.00;99.90
11474;DHT22;5793;52.238;13.438;2023-02-16T01:10:03;-0.10;99.90
11474;DHT22;5793;52.238;13.438;2023-02-16T01:12:50;-0.20;99.90
11474;DHT22;5793;52.238;13.438;2023-02-16T01:15:20;-0.20;99.90
11474;DHT22;5793;52.238;13.438;2023-02-16T01:17:48;-0.20;99.90
11474;DHT22;5793;52.238;13.438;2023-02-16T01:20:18;-0.20;99.90
11474;DHT22;5793;52.238;13.438;2023-02-16T01:22:46;-0.10;99.90
11474;DHT22;5793;52.238;13.438;2023-02-16T01:25:14;-0.10;99.90
11474;DHT22;5793;52.238;13.438;2023-02-16T01:27:43;-0.10;99.90
11474;DHT22;5793;52.238;13.438;2023-02-16T01:30:15;-0.10;99.90
11474;DHT22;5793;52.238;13.438;2023-02-16T01:32:44;-0.10;99.90
11474;DHT22;5793;52.238;13.438;2023-02-16T01:35:17;0.00;99.90
11474;DHT22;5793;52.238;13.438;2023-02-16T01:37:45;-0.10;99.90
11474;DHT22;5793;52.238;13.438;2023-02-16T01:40:36;-0.10;99.90
11474;DHT22;5793;52.238;13.438;2023-02-16T01:43:11;0.00;99.90
11474;DHT22;5793;52.238;13.438;2023-02-16T01:45:48;0.00;99.90
11474;DHT22;5793;52.238;13.438;2023-02-16T01:48:21;0.00;99.90
11474;DHT22;5793;52.238;13.438;2023-02-16T01:50:55;0.00;99.90
11474;DHT22;5793;52.238;13.438;2023-02-16T01:53:30;-0.10;99.90
11474;DHT22;5793;52.238;13.438;2023-02-16T01:56:02;-0.10;99.90
11474;DHT22;5793;52.238;13.438;2023-02-16T01:58:35;-0.20;99.90
11474;DHT22;5793;52.238;13.438;2023-02-16T02:01:38;-0.10;99.90
11474;DHT22;5793;52.238;13.438;2023-02-16T02:04:22;-0.20;99.90
11474;DHT22;5793;52.238;13.438;2023-02-16T02:07:16;-0.20;99.90
11474;DHT22;5793;52.238;13.438;2023-02-16T02:09:51;-0.20;99.90
11474;DHT22;5793;52.238;13.438;2023-02-16T02:12:27;-0.10;99.90
11474;DHT22;5793;52.238;13.438;2023-02-16T02:14:57;-0.10;99.90
11474;DHT22;5793;52.238;13.438;2023-02-16T02:17:26;0.00;99.90
11474;DHT22;5793;52.238;13.438;2023-02-16T02:20:01;0.00;99.90
11474;DHT22;5793;52.238;13.438;2023-02-16T02:23:10;0.00;99.90
11474;DHT22;5793;52.238;13.438;2023-02-16T02:29:28;0.10;99.90
11474;DHT22;5793;52.238;13.438;2023-02-16T02:32:06;0.10;99.90
11474;DHT22;5793;52.238;13.438;2023-02-16T02:34:47;0.00;99.90
11474;DHT22;5793;52.238;13.438;2023-02-16T02:37:26;0.00;99.90
11474;DHT22;5793;52.238;13.438;2023-02-16T02:40:04;-0.10;99.90
11474;DHT22;5793;52.238;13.438;2023-02-16T02:42:40;-0.10;99.90
11474;DHT22;5793;52.238;13.438;2023-02-16T02:45:16;-0.10;99.90
11474;DHT22;5793;52.238;13.438;2023-02-16T02:47:46;-0.10;99.90
11474;DHT22;5793;52.238;13.438;2023-02-16T02:50:45;-0.10;99.90
11474;DHT22;5793;52.238;13.438;2023-02-16T02:53:29;-0.10;99.90
11474;DHT22;5793;52.238;13.438;2023-02-16T02:55:58;-0.10;99.90
11474;DHT22;5793;52.238;13.438;2023-02-16T02:58:46;0.00;99.90
11474;DHT22;5793;52.238;13.438;2023-02-16T03:01:35;0.00;99.90
11474;DHT22;5793;52.238;13.438;2023-02-16T03:04:05;0.00;99.90
11474;DHT22;5793;52.238;13.438;2023-02-16T03:06:37;0.00;99.90
11474;DHT22;5793;52.238;13.438;2023-02-16T03:09:10;0.00;99.90
11474;DHT22;5793;52.238;13.438;2023-02-16T03:11:40;-0.10;99.90
11474;DHT22;5793;52.238;13.438;2023-02-16T03:14:28;-0.10;99.90
11474;DHT22;5793;52.238;13.438;2023-02-16T03:17:00;-0.20;99.90
11474;DHT22;5793;52.238;13.438;2023-02-16T03:19:49;-0.20;99.90
11474;DHT22;5793;52.238;13.438;2023-02-16T03:22:36;-0.30;99.90
11474;DHT22;5793;52.238;13.438;2023-02-16T03:25:25;-0.30;99.90
11474;DHT22;5793;52.238;13.438;2023-02-16T03:28:12;-0.30;99.90
11474;DHT22;5793;52.238;13.438;2023-02-16T03:30:58;-0.30;99.90
11474;DHT22;5793;52.238;13.438;2023-02-16T03:33:29;-0.30;99.90
11474;DHT22;5793;52.238;13.438;2023-02-16T03:35:58;-0.30;99.90
11474;DHT22;5793;52.238;13.438;2023-02-16T03:38:26;-0.40;99.90
11474;DHT22;5793;52.238;13.438;2023-02-16T03:40:54;-0.30;99.90
11474;DHT22;5793;52.238;13.438;2023-02-16T03:43:24;-0.30;99.90
11474;DHT22;5793;52.238;13.438;2023-02-16T03:45:52;-0.30;99.90
11474;DHT22;5793;52.238;13.438;2023-02-16T03:48:20;-0.30;99.90
11474;DHT22;5793;52.238;13.438;2023-02-16T03:50:50;-0.40;99.90
11474;DHT22;5793;52.238;13.438;2023-02-16T03:53:21;-0.40;99.90
11474;DHT22;5793;52.238;13.438;2023-02-16T03:55:48;-0.50;99.90
11474;DHT22;5793;52.238;13.438;2023-02-16T03:58:19;-0.50;99.90
11474;DHT22;5793;52.238;13.438;2023-02-16T04:00:48;-0.50;99.90
11474;DHT22;5793;52.238;13.438;2023-02-16T04:03:16;-0.60;99.90
11474;DHT22;5793;52.238;13.438;2023-02-16T04:05:44;-0.70;99.90
11474;DHT22;5793;52.238;13.438;2023-02-16T04:08:13;-0.80;99.90
11474;DHT22;5793;52.238;13.438;2023-02-16T04:10:41;-0.80;99.90
11474;DHT22;5793;52.238;13.438;2023-02-16T04:13:09;-0.70;99.90
11474;DHT22;5793;52.238;13.438;2023-02-16T04:15:36;-0.60;99.90
11474;DHT22;5793;52.238;13.438;2023-02-16T04:18:04;-0.50;99.90
11474;DHT22;5793;52.238;13.438;2023-02-16T04:20:33;-0.40;99.90
11474;DHT22;5793;52.238;13.438;2023-02-16T04:23:01;-0.40;99.90
11474;DHT22;5793;52.238;13.438;2023-02-16T04:25:31;-0.30;99.90
11474;DHT22;5793;52.238;13.438;2023-02-16T04:27:59;-0.30;99.90
11474;DHT22;5793;52.238;13.438;2023-02-16T04:30:28;-0.40;99.90
11474;DHT22;5793;52.238;13.438;2023-02-16T04:32:57;-0.30;99.90
11474;DHT22;5793;52.238;13.438;2023-02-16T04:35:25;-0.30;99.90
11474;DHT22;5793;52.238;13.438;2023-02-16T04:37:53;-0.30;99.90
11474;DHT22;5793;52.238;13.438;2023-02-16T04:40:21;-0.30;99.90
11474;DHT22;5793;52.238;13.438;2023-02-16T04:42:50;-0.30;99.90
11474;DHT22;5793;52.238;13.438;2023-02-16T04:45:18;-0.30;99.90
11474;DHT22;5793;52.238;13.438;2023-02-16T04:47:45;-0.30;99.90
11474;DHT22;5793;52.238;13.438;2023-02-16T04:50:13;-0.30;99.90
11474;DHT22;5793;52.238;13.438;2023-02-16T04:52:41;-0.30;99.90
11474;DHT22;5793;52.238;13.438;2023-02-16T04:55:09;-0.20;99.90
11474;DHT22;5793;52.238;13.438;2023-02-16T04:57:37;-0.20;99.90
11474;DHT22;5793;52.238;13.438;2023-02-16T05:00:08;-0.20;99.90
11474;DHT22;5793;52.238;13.438;2023-02-16T05:02:37;-0.20;99.90
11474;DHT22;5793;52.238;13.438;2023-02-16T05:05:06;-0.20;99.90
11474;DHT22;5793;52.238;13.438;2023-02-16T05:07:34;-0.10;99.90
11474;DHT22;5793;52.238;13.438;2023-02-16T05:10:03;-0.10;99.90
11474;DHT22;5793;52.238;13.438;2023-02-16T05:12:30;-0.10;99.90
11474;DHT22;5793;52.238;13.438;2023-02-16T05:15:17;-0.20;99.90
11474;DHT22;5793;52.238;13.438;2023-02-16T05:17:45;-0.20;99.90
11474;DHT22;5793;52.238;13.438;2023-02-16T05:20:13;-0.20;99.90
11474;DHT22;5793;52.238;13.438;2023-02-16T05:22:40;-0.20;99.90
11474;DHT22;5793;52.238;13.438;2023-02-16T05:25:11;-0.30;99.90
11474;DHT22;5793;52.238;13.438;2023-02-16T05:27:39;-0.30;99.90
11474;DHT22;5793;52.238;13.438;2023-02-16T05:30:07;-0.30;99.90
11474;DHT22;5793;52.238;13.438;2023-02-16T05:32:36;-0.30;99.90
11474;DHT22;5793;52.238;13.438;2023-02-16T05:35:05;-0.30;99.90
11474;DHT22;5793;52.238;13.438;2023-02-16T05:37:32;-0.30;99.90
11474;DHT22;5793;52.238;13.438;2023-02-16T05:40:00;-0.30;99.90
11474;DHT22;5793;52.238;13.438;2023-02-16T05:42:28;-0.30;99.90
11474;DHT22;5793;52.238;13.438;2023-02-16T05:44:56;-0.30;99.90
11474;DHT22;5793;52.238;13.438;2023-02-16T05:47:23;-0.30;99.90
11474;DHT22;5793;52.238;13.438;2023-02-16T05:49:52;-0.40;99.90
11474;DHT22;5793;52.238;13.438;2023-02-16T05:52:20;-0.50;99.90
11474;DHT22;5793;52.238;13.438;2023-02-16T05:54:48;-0.50;99.90
11474;DHT22;5793;52.238;13.438;2023-02-16T05:57:16;-0.50;99.90
11474;DHT22;5793;52.238;13.438;2023-02-16T05:59:43;-0.50;99.90
11474;DHT22;5793;52.238;13.438;2023-02-16T06:02:11;-0.50;99.90
11474;DHT22;5793;52.238;13.438;2023-02-16T06:04:39;-0.50;99.90
11474;DHT22;5793;52.238;13.438;2023-02-16T06:07:08;-0.50;99.90
11474;DHT22;5793;52.238;13.438;2023-02-16T06:09:37;-0.50;99.90
11474;DHT22;5793;52.238;13.438;2023-02-16T06:12:05;-0.40;99.90
11474;DHT22;5793;52.238;13.438;2023-02-16T06:14:33;-0.40;99.90
11474;DHT22;5793;52.238;13.438;2023-02-16T06:17:01;-0.40;99.90
11474;DHT22;5793;52.238;13.438;2023-02-16T06:19:29;-0.30;99.90
11474;DHT22;5793;52.238;13.438;2023-02-16T06:21:57;-0.30;99.90
11474;DHT22;5793;52.238;13.438;2023-02-16T06:24:26;-0.30;99.90
11474;DHT22;5793;52.238;13.438;2023-02-16T06:26:54;-0.20;99.90
11474;DHT22;5793;52.238;13.438;2023-02-16T06:29:22;-0.20;99.90
11474;DHT22;5793;52.238;13.438;2023-02-16T06:31:50;-0.20;99.90
11474;DHT22;5793;52.238;13.438;2023-02-16T06:34:18;-0.20;99.90
11474;DHT22;5793;52.238;13.438;2023-02-16T06:36:45;-0.20;99.90
11474;DHT22;5793;52.238;13.438;2023-02-16T06:39:13;-0.20;99.90
11474;DHT22;5793;52.238;13.438;2023-02-16T06:41:42;-0.20;99.90
11474;DHT22;5793;52.238;13.438;2023-02-16T06:44:12;-0.20;99.90
11474;DHT22;5793;52.238;13.438;2023-02-16T06:46:41;-0.20;99.90
11474;DHT22;5793;52.238;13.438;2023-02-16T06:49:11;-0.10;99.90
11474;DHT22;5793;52.238;13.438;2023-02-16T06:51:39;-0.10;99.90
11474;DHT22;5793;52.238;13.438;2023-02-16T06:54:07;-0.10;99.90
11474;DHT22;5793;52.238;13.438;2023-02-16T06:56:35;0.00;99.90
11474;DHT22;5793;52.238;13.438;2023-02-16T06:59:06;0.00;99.90
11474;DHT22;5793;52.238;13.438;2023-02-16T07:01:34;0.20;99.90
11474;DHT22;5793;52.238;13.438;2023-02-16T07:04:02;0.10;99.90
11474;DHT22;5793;52.238;13.438;2023-02-16T07:06:30;0.10;99.90
11474;DHT22;5793;52.238;13.438;2023-02-16T07:08:58;0.20;99.90
11474;DHT22;5793;52.238;13.438;2023-02-16T07:11:26;0.00;99.90
11474;DHT22;5793;52.238;13.438;2023-02-16T07:13:54;0.30;99.90
11474;DHT22;5793;52.238;13.438;2023-02-16T07:16:23;0.30;99.90
11474;DHT22;5793;52.238;13.438;2023-02-16T07:18:51;0.30;99.90
11474;DHT22;5793;52.238;13.438;2023-02-16T07:21:19;0.40;99.90
11474;DHT22;5793;52.238;13.438;2023-02-16T07:23:46;0.50;99.90
11474;DHT22;5793;52.238;13.438;2023-02-16T07:26:14;0.60;99.90
11474;DHT22;5793;52.238;13.438;2023-02-16T07:28:42;0.60;99.90
11474;DHT22;5793;52.238;13.438;2023-02-16T07:31:11;0.80;99.90
11474;DHT22;5793;52.238;13.438;2023-02-16T07:33:41;0.90;99.90
11474;DHT22;5793;52.238;13.438;2023-02-16T07:36:10;1.10;99.90
11474;DHT22;5793;52.238;13.438;2023-02-16T07:38:38;1.20;99.90
11474;DHT22;5793;52.238;13.438;2023-02-16T07:41:07;1.30;99.90
11474;DHT22;5793;52.238;13.438;2023-02-16T07:43:36;1.50;99.90
11474;DHT22;5793;52.238;13.438;2023-02-16T07:46:04;1.50;99.90
11474;DHT22;5793;52.238;13.438;2023-02-16T07:48:32;1.60;99.90
11474;DHT22;5793;52.238;13.438;2023-02-16T07:51:01;1.70;99.90
11474;DHT22;5793;52.238;13.438;2023-02-16T07:53:30;1.80;99.90
11474;DHT22;5793;52.238;13.438;2023-02-16T07:55:58;2.00;99.90
11474;DHT22;5793;52.238;13.438;2023-02-16T07:58:26;2.10;99.90
11474;DHT22;5793;52.238;13.438;2023-02-16T08:00:55;2.30;99.90
11474;DHT22;5793;52.238;13.438;2023-02-16T08:03:23;2.40;99.90
11474;DHT22;5793;52.238;13.438;2023-02-16T08:05:51;2.40;99.90
11474;DHT22;5793;52.238;13.438;2023-02-16T08:08:20;2.40;99.90
11474;DHT22;5793;52.238;13.438;2023-02-16T08:10:48;2.50;99.90
11474;DHT22;5793;52.238;13.438;2023-02-16T08:13:15;2.60;99.90
11474;DHT22;5793;52.238;13.438;2023-02-16T08:15:44;2.70;99.90
11474;DHT22;5793;52.238;13.438;2023-02-16T08:18:11;2.90;99.90
11474;DHT22;5793;52.238;13.438;2023-02-16T08:20:39;3.00;99.90
11474;DHT22;5793;52.238;13.438;2023-02-16T08:23:28;3.20;99.90
11474;DHT22;5793;52.238;13.438;2023-02-16T08:25:57;3.30;99.90
11474;DHT22;5793;52.238;13.438;2023-02-16T08:28:25;3.40;99.90
11474;DHT22;5793;52.238;13.438;2023-02-16T08:30:54;3.40;99.90
11474;DHT22;5793;52.238;13.438;2023-02-16T08:33:22;3.50;99.90
11474;DHT22;5793;52.238;13.438;2023-02-16T08:35:50;3.60;99.90
11474;DHT22;5793;52.238;13.438;2023-02-16T08:38:18;3.70;99.90
11474;DHT22;5793;52.238;13.438;2023-02-16T08:40:48;3.80;99.90
11474;DHT22;5793;52.238;13.438;2023-02-16T08:43:16;3.70;99.90
11474;DHT22;5793;52.238;13.438;2023-02-16T08:45:44;3.60;99.90
11474;DHT22;5793;52.238;13.438;2023-02-16T08:48:13;3.60;99.90
11474;DHT22;5793;52.238;13.438;2023-02-16T08:50:42;3.50;99.90
11474;DHT22;5793;52.238;13.438;2023-02-16T08:53:12;3.50;99.90
11474;DHT22;5793;52.238;13.438;2023-02-16T08:55:40;3.60;99.90
11474;DHT22;5793;52.238;13.438;2023-02-16T08:58:10;3.80;99.90
11474;DHT22;5793;52.238;13.438;2023-02-16T09:00:37;4.00;99.90
11474;DHT22;5793;52.238;13.438;2023-02-16T09:03:07;4.10;99.90
11474;DHT22;5793;52.238;13.438;2023-02-16T09:05:34;4.30;99.90
11474;DHT22;5793;52.238;13.438;2023-02-16T09:08:02;4.50;99.90
11474;DHT22;5793;52.238;13.438;2023-02-16T09:10:30;4.70;99.90
11474;DHT22;5793;52.238;13.438;2023-02-16T09:12:58;4.80;99.90
11474;DHT22;5793;52.238;13.438;2023-02-16T09:15:27;5.00;99.90
11474;DHT22;5793;52.238;13.438;2023-02-16T09:17:55;5.00;99.90
11474;DHT22;5793;52.238;13.438;2023-02-16T09:20:23;5.20;99.90
11474;DHT22;5793;52.238;13.438;2023-02-16T09:22:52;5.30;99.90
11474;DHT22;5793;52.238;13.438;2023-02-16T09:25:20;5.50;99.90
11474;DHT22;5793;52.238;13.438;2023-02-16T09:27:50;7.60;99.90
11474;DHT22;5793;52.238;13.438;2023-02-16T09:30:18;10.40;99.90
11474;DHT22;5793;52.238;13.438;2023-02-16T09:32:48;13.10;99.90
11474;DHT22;5793;52.238;13.438;2023-02-16T09:35:16;14.50;98.60
11474;DHT22;5793;52.238;13.438;2023-02-16T09:37:44;15.40;92.70
11474;DHT22;5793;52.238;13.438;2023-02-16T09:40:12;16.00;87.70
11474;DHT22;5793;52.238;13.438;2023-02-16T09:42:52;17.00;81.50
11474;DHT22;5793;52.238;13.438;2023-02-16T09:45:24;18.10;71.10
11474;DHT22;5793;52.238;13.438;2023-02-16T09:47:55;17.50;68.30
11474;DHT22;5793;52.238;13.438;2023-02-16T09:50:26;16.90;70.10
11474;DHT22;5793;52.238;13.438;2023-02-16T09:53:27;17.10;70.30
11474;DHT22;5793;52.238;13.438;2023-02-16T09:56:02;18.50;69.60
11474;DHT22;5793;52.238;13.438;2023-02-16T09:58:38;20.60;61.70
11474;DHT22;5793;52.238;13.438;2023-02-16T10:01:16;22.00;56.30
11474;DHT22;5793;52.238;13.438;2023-02-16T10:03:56;23.40;51.70
11474;DHT22;5793;52.238;13.438;2023-02-16T10:06:33;22.80;50.10
11474;DHT22;5793;52.238;13.438;2023-02-16T10:09:06;21.00;52.90
11474;DHT22;5793;52.238;13.438;2023-02-16T10:11:38;21.50;52.90
11474;DHT22;5793;52.238;13.438;2023-02-16T10:14:21;21.30;52.40
11474;DHT22;5793;52.238;13.438;2023-02-16T10:16:53;22.30;50.40
11474;DHT22;5793;52.238;13.438;2023-02-16T10:19:27;23.10;50.00
11474;DHT22;5793;52.238;13.438;2023-02-16T10:21:58;24.10;48.50
11474;DHT22;5793;52.238;13.438;2023-02-16T10:24:40;23.50;47.90
11474;DHT22;5793;52.238;13.438;2023-02-16T10:27:13;22.50;50.40
11474;DHT22;5793;52.238;13.438;2023-02-16T10:29:42;22.60;49.20
11474;DHT22;5793;52.238;13.438;2023-02-16T10:32:15;22.20;49.40
11474;DHT22;5793;52.238;13.438;2023-02-16T10:34:54;22.00;50.30
11474;DHT22;5793;52.238;13.438;2023-02-16T10:37:35;20.20;52.10
11474;DHT22;5793;52.238;13.438;2023-02-16T10:40:19;19.10;54.40
11474;DHT22;5793;52.238;13.438;2023-02-16T10:42:53;18.10;57.00
11474;DHT22;5793;52.238;13.438;2023-02-16T10:45:28;16.80;59.50
11474;DHT22;5793;52.238;13.438;2023-02-16T10:47:58;16.20;61.50
11474;DHT22;5793;52.238;13.438;2023-02-16T10:50:31;16.40;61.10
11474;DHT22;5793;52.238;13.438;2023-02-16T10:53:03;16.40;60.70
11474;DHT22;5793;52.238;13.438;2023-02-16T10:55:32;16.90;59.70
11474;DHT22;5793;52.238;13.438;2023-02-16T10:58:01;16.70;58.50
11474;DHT22;5793;52.238;13.438;2023-02-16T11:00:41;16.00;60.00
11474;DHT22;5793;52.238;13.438;2023-02-16T11:03:12;15.70;60.10
11474;DHT22;5793;52.238;13.438;2023-02-16T11:05:42;15.20;64.40
11474;DHT22;5793;52.238;13.438;2023-02-16T11:08:10;14.70;66.90
11474;DHT22;5793;52.238;13.438;2023-02-16T11:10:43;15.50;66.50
11474;DHT22;5793;52.238;13.438;2023-02-16T11:13:22;16.10;65.50
11474;DHT22;5793;52.238;13.438;2023-02-16T11:15:54;16.00;63.50
11474;DHT22;5793;52.238;13.438;2023-02-16T11:18:30;15.60;66.00
11474;DHT22;5793;52.238;13.438;2023-02-16T11:21:00;15.40;66.60
11474;DHT22;5793;52.238;13.438;2023-02-16T11:23:30;15.60;68.00
11474;DHT22;5793;52.238;13.438;2023-02-16T11:26:02;15.90;64.00
11474;DHT22;5793;52.238;13.438;2023-02-16T11:28:34;16.10;63.80
11474;DHT22;5793;52.238;13.438;2023-02-16T11:31:10;15.40;66.60
11474;DHT22;5793;52.238;13.438;2023-02-16T11:33:41;14.60;71.10
11474;DHT22;5793;52.238;13.438;2023-02-16T11:36:25;13.90;74.40
11474;DHT22;5793;52.238;13.438;2023-02-16T11:38:58;13.60;80.90
11474;DHT22;5793;52.238;13.438;2023-02-16T11:41:27;13.90;83.70
11474;DHT22;5793;52.238;13.438;2023-02-16T11:43:55;14.00;90.00
11474;DHT22;5793;52.238;13.438;2023-02-16T11:46:24;14.30;82.40
11474;DHT22;5793;52.238;13.438;2023-02-16T11:48:56;14.10;89.50
11474;DHT22;5793;52.238;13.438;2023-02-16T11:51:33;13.80;93.40
11474;DHT22;5793;52.238;13.438;2023-02-16T11:54:04;13.10;94.40
11474;DHT22;5793;52.238;13.438;2023-02-16T11:56:34;12.80;99.90
11474;DHT22;5793;52.238;13.438;2023-02-16T11:59:11;12.70;99.90
11474;DHT22;5793;52.238;13.438;2023-02-16T12:02:07;12.70;99.90
11474;DHT22;5793;52.238;13.438;2023-02-16T12:04:50;12.50;99.90
11474;DHT22;5793;52.238;13.438;2023-02-16T12:07:27;12.50;99.90
11474;DHT22;5793;52.238;13.438;2023-02-16T12:10:03;12.40;99.90
11474;DHT22;5793;52.238;13.438;2023-02-16T12:12:42;12.50;99.90
11474;DHT22;5793;52.238;13.438;2023-02-16T12:15:19;12.50;99.90
11474;DHT22;5793;52.238;13.438;2023-02-16T12:17:55;12.50;99.90
11474;DHT22;5793;52.238;13.438;2023-02-16T12:20:40;12.30;99.90
11474;DHT22;5793;52.238;13.438;2023-02-16T12:23:24;12.10;99.90
11474;DHT22;5793;52.238;13.438;2023-02-16T12:26:03;11.90;99.90
11474;DHT22;5793;52.238;13.438;2023-02-16T12:28:39;12.10;99.90
11474;DHT22;5793;52.238;13.438;2023-02-16T12:31:17;12.30;99.90
11474;DHT22;5793;52.238;13.438;2023-02-16T12:33:52;12.30;99.90
11474;DHT22;5793;52.238;13.438;2023-02-16T12:36:31;12.40;99.90
11474;DHT22;5793;52.238;13.438;2023-02-16T12:39:10;12.30;99.90
11474;DHT22;5793;52.238;13.438;2023-02-16T12:41:51;12.40;99.90
11474;DHT22;5793;52.238;13.438;2023-02-16T12:44:32;12.50;99.90
11474;DHT22;5793;52.238;13.438;2023-02-16T12:47:03;12.50;99.90
11474;DHT22;5793;52.238;13.438;2023-02-16T12:49:39;12.30;99.90
11474;DHT22;5793;52.238;13.438;2023-02-16T12:52:19;12.10;99.90
11474;DHT22;5793;52.238;13.438;2023-02-16T12:54:55;12.30;99.90
11474;DHT22;5793;52.238;13.438;2023-02-16T12:57:27;12.40;99.90
11474;DHT22;5793;52.238;13.438;2023-02-16T13:00:03;12.50;99.90
11474;DHT22;5793;52.238;13.438;2023-02-16T13:02:36;12.60;99.90
11474;DHT22;5793;52.238;13.438;2023-02-16T13:05:09;12.70;99.90
11474;DHT22;5793;52.238;13.438;2023-02-16T13:07:38;12.80;99.90
11474;DHT22;5793;52.238;13.438;2023-02-16T13:10:17;12.70;99.90
11474;DHT22;5793;52.238;13.438;2023-02-16T13:12:50;12.80;99.90
11474;DHT22;5793;52.238;13.438;2023-02-16T13:15:25;12.80;99.90
11474;DHT22;5793;52.238;13.438;2023-02-16T13:17:59;12.70;99.90
11474;DHT22;5793;52.238;13.438;2023-02-16T13:20:28;12.80;99.90
11474;DHT22;5793;52.238;13.438;2023-02-16T13:23:25;12.90;99.90
11474;DHT22;5793;52.238;13.438;2023-02-16T13:26:16;12.90;99.90
11474;DHT22;5793;52.238;13.438;2023-02-16T13:29:06;12.50;99.90
11474;DHT22;5793;52.238;13.438;2023-02-16T13:31:48;12.40;99.90
11474;DHT22;5793;52.238;13.438;2023-02-16T13:34:42;12.30;99.90
11474;DHT22;5793;52.238;13.438;2023-02-16T13:37:21;12.20;99.90
11474;DHT22;5793;52.238;13.438;2023-02-16T13:40:09;12.20;99.90
11474;DHT22;5793;52.238;13.438;2023-02-16T13:43:12;12.10;99.90
11474;DHT22;5793;52.238;13.438;2023-02-16T13:45:46;12.10;99.90
11474;DHT22;5793;52.238;13.438;2023-02-16T13:48:24;12.00;99.90
11474;DHT22;5793;52.238;13.438;2023-02-16T13:50:58;11.90;99.90
11474;DHT22;5793;52.238;13.438;2023-02-16T13:53:31;11.90;99.90
11474;DHT22;5793;52.238;13.438;2023-02-16T13:56:17;11.90;99.90
11474;DHT22;5793;52.238;13.438;2023-02-16T13:58:50;11.90;99.90
11474;DHT22;5793;52.238;13.438;2023-02-16T14:01:39;11.90;99.90
11474;DHT22;5793;52.238;13.438;2023-02-16T14:04:58;11.90;99.90
11474;DHT22;5793;52.238;13.438;2023-02-16T14:07:29;11.90;99.90
11474;DHT22;5793;52.238;13.438;2023-02-16T14:09:58;11.80;99.90
11474;DHT22;5793;52.238;13.438;2023-02-16T14:12:27;11.80;99.90
11474;DHT22;5793;52.238;13.438;2023-02-16T14:15:00;11.70;99.90
11474;DHT22;5793;52.238;13.438;2023-02-16T14:17:31;11.60;99.90
11474;DHT22;5793;52.238;13.438;2023-02-16T14:20:02;11.50;99.90
11474;DHT22;5793;52.238;13.438;2023-02-16T14:22:47;11.40;99.90
11474;DHT22;5793;52.238;13.438;2023-02-16T14:25:34;11.20;99.90
11474;DHT22;5793;52.238;13.438;2023-02-16T14:28:05;11.20;99.90
11474;DHT22;5793;52.238;13.438;2023-02-16T14:30:43;11.20;99.90
11474;DHT22;5793;52.238;13.438;2023-02-16T14:33:18;11.10;99.90
11474;DHT22;5793;52.238;13.438;2023-02-16T14:36:05;11.10;99.90
11474;DHT22;5793;52.238;13.438;2023-02-16T14:38:35;11.10;99.90
11474;DHT22;5793;52.238;13.438;2023-02-16T14:41:05;11.00;99.90
11474;DHT22;5793;52.238;13.438;2023-02-16T14:43:40;11.00;99.90
11474;DHT22;5793;52.238;13.438;2023-02-16T14:46:32;11.00;99.90
11474;DHT22;5793;52.238;13.438;2023-02-16T14:49:25;11.10;99.90
11474;DHT22;5793;52.238;13.438;2023-02-16T14:52:29;11.10;99.90
11474;DHT22;5793;52.238;13.438;2023-02-16T14:55:31;11.10;99.90
11474;DHT22;5793;52.238;13.438;2023-02-16T14:58:18;11.10;99.90
11474;DHT22;5793;52.238;13.438;2023-02-16T15:00:51;11.10;99.90
11474;DHT22;5793;52.238;13.438;2023-02-16T15:03:23;11.10;99.90
11474;DHT22;5793;52.238;13.438;2023-02-16T15:05:54;11.00;99.90
11474;DHT22;5793;52.238;13.438;2023-02-16T15:08:26;11.00;99.90
11474;DHT22;5793;52.238;13.438;2023-02-16T15:11:01;10.90;99.90
11474;DHT22;5793;52.238;13.438;2023-02-16T15:13:39;10.90;99.90
11474;DHT22;5793;52.238;13.438;2023-02-16T15:16:09;10.90;99.90
11474;DHT22;5793;52.238;13.438;2023-02-16T15:18:43;10.90;99.90
11474;DHT22;5793;52.238;13.438;2023-02-16T15:21:16;10.90;99.90
11474;DHT22;5793;52.238;13.438;2023-02-16T15:23:48;10.80;99.90
11474;DHT22;5793;52.238;13.438;2023-02-16T15:26:19;10.80;99.90
11474;DHT22;5793;52.238;13.438;2023-02-16T15:28:53;10.70;99.90
11474;DHT22;5793;52.238;13.438;2023-02-16T15:31:24;10.60;99.90
11474;DHT22;5793;52.238;13.438;2023-02-16T15:33:59;10.50;99.90
11474;DHT22;5793;52.238;13.438;2023-02-16T15:36:33;10.50;99.90
11474;DHT22;5793;52.238;13.438;2023-02-16T15:39:04;10.40;99.90
11474;DHT22;5793;52.238;13.438;2023-02-16T15:41:34;10.30;99.90
11474;DHT22;5793;52.238;13.438;2023-02-16T15:44:04;10.20;99.90
11474;DHT22;5793;52.238;13.438;2023-02-16T15:46:33;10.10;99.90
11474;DHT22;5793;52.238;13.438;2023-02-16T15:49:11;10.10;99.90
11474;DHT22;5793;52.238;13.438;2023-02-16T15:51:40;10.00;99.90
11474;DHT22;5793;52.238;13.438;2023-02-16T15:54:18;9.90;99.90
11474;DHT22;5793;52.238;13.438;2023-02-16T15:56:49;9.90;99.90
11474;DHT22;5793;52.238;13.438;2023-02-16T15:59:27;9.80;99.90
11474;DHT22;5793;52.238;13.438;2023-02-16T16:01:59;9.70;99.90
11474;DHT22;5793;52.238;13.438;2023-02-16T16:04:29;9.70;99.90
11474;DHT22;5793;52.238;13.438;2023-02-16T16:06:58;9.70;99.90
11474;DHT22;5793;52.238;13.438;2023-02-16T16:09:28;9.70;99.90
11474;DHT22;5793;52.238;13.438;2023-02-16T16:11:58;9.70;99.90
11474;DHT22;5793;52.238;13.438;2023-02-16T16:14:29;9.70;99.90
11474;DHT22;5793;52.238;13.438;2023-02-16T16:16:59;9.70;99.90